sensor_id;sensor_type;location;lat;lon;timestamp;temperature;humidity
50606;DHT22;36557;53.572;10.170;2022-08-21T00:01:11;14.40;99.90
50606;DHT22;36557;53.572;10.170;2022-08-21T00:03:38;14.30;99.90
50606;DHT22;36557;53.572;10.170;2022-08-21T00:06:04;14.30;99.90
50606;DHT22;36557;53.572;10.170;2022-08-21T00:08:30;14.20;99.90
50606;DHT22;36557;53.572;10.170;2022-08-21T00:10:55;14.30;99.90
50606;DHT22;36557;53.572;10.170;2022-08-21T00:13:21;14.30;99.90
50606;DHT22;36557;53.572;10.170;2022-08-21T00:15:49;14.30;99.90
50606;DHT22;36557;53.572;10.170;2022-08-21T00:18:15;14.20;99.90
50606;DHT22;36557;53.572;10.170;2022-08-21T00:20:43;14.30;99.90
50606;DHT22;36557;53.572;10.170;2022-08-21T00:23:09;14.30;99.90
50606;DHT22;36557;53.572;10.170;2022-08-21T00:25:35;14.20;99.90
50606;DHT22;36557;53.572;10.170;2022-08-21T00:28:00;14.20;99.90
50606;DHT22;36557;53.572;10.170;2022-08-21T00:30:27;14.10;99.90
50606;DHT22;36557;53.572;10.170;2022-08-21T00:32:55;14.10;99.90
50606;DHT22;36557;53.572;10.170;2022-08-21T00:35:28;14.20;99.90
50606;DHT22;36557;53.572;10.170;2022-08-21T00:37:55;14.10;99.90
50606;DHT22;36557;53.572;10.170;2022-08-21T00:40:32;14.10;99.90
50606;DHT22;36557;53.572;10.170;2022-08-21T00:42:58;14.00;99.90
50606;DHT22;36557;53.572;10.170;2022-08-21T00:45:24;14.10;99.90
50606;DHT22;36557;53.572;10.170;2022-08-21T00:47:51;14.10;99.90
50606;DHT22;36557;53.572;10.170;2022-08-21T00:50:18;14.10;99.90
50606;DHT22;36557;53.572;10.170;2022-08-21T00:52:46;14.10;99.90
50606;DHT22;36557;53.572;10.170;2022-08-21T00:55:12;14.20;99.90
50606;DHT22;36557;53.572;10.170;2022-08-21T00:57:48;14.20;99.90
50606;DHT22;36557;53.572;10.170;2022-08-21T01:00:19;14.10;99.90
50606;DHT22;36557;53.572;10.170;2022-08-21T01:02:47;14.20;99.90
50606;DHT22;36557;53.572;10.170;2022-08-21T01:05:13;14.20;99.90
50606;DHT22;36557;53.572;10.170;2022-08-21T01:07:41;14.20;99.90
50606;DHT22;36557;53.572;10.170;2022-08-21T01:10:07;14.20;99.90
50606;DHT22;36557;53.572;10.170;2022-08-21T01:12:34;14.20;99.90
50606;DHT22;36557;53.572;10.170;2022-08-21T01:15:02;14.10;99.90
50606;DHT22;36557;53.572;10.170;2022-08-21T01:17:28;14.10;99.90
50606;DHT22;36557;53.572;10.170;2022-08-21T01:20:00;14.10;99.90
50606;DHT22;36557;53.572;10.170;2022-08-21T01:22:26;14.10;99.90
50606;DHT22;36557;53.572;10.170;2022-08-21T01:24:52;14.10;99.90
50606;DHT22;36557;53.572;10.170;2022-08-21T01:27:18;14.10;99.90
50606;DHT22;36557;53.572;10.170;2022-08-21T01:29:57;14.10;99.90
50606;DHT22;36557;53.572;10.170;2022-08-21T01:32:23;14.10;99.90
50606;DHT22;36557;53.572;10.170;2022-08-21T01:34:50;14.10;99.90
50606;DHT22;36557;53.572;10.170;2022-08-21T01:37:18;14.00;99.90
50606;DHT22;36557;53.572;10.170;2022-08-21T01:39:44;13.90;99.90
50606;DHT22;36557;53.572;10.170;2022-08-21T01:42:10;13.80;99.90
50606;DHT22;36557;53.572;10.170;2022-08-21T01:44:36;13.80;99.90
50606;DHT22;36557;53.572;10.170;2022-08-21T01:47:05;13.80;99.90
50606;DHT22;36557;53.572;10.170;2022-08-21T01:49:33;13.70;99.90
50606;DHT22;36557;53.572;10.170;2022-08-21T01:51:59;13.60;99.90
50606;DHT22;36557;53.572;10.170;2022-08-21T01:54:26;13.60;99.90
50606;DHT22;36557;53.572;10.170;2022-08-21T01:56:53;13.70;99.90
50606;DHT22;36557;53.572;10.170;2022-08-21T01:59:21;13.60;99.90
50606;DHT22;36557;53.572;10.170;2022-08-21T02:01:47;13.70;99.90
50606;DHT22;36557;53.572;10.170;2022-08-21T02:04:15;13.60;99.90
50606;DHT22;36557;53.572;10.170;2022-08-21T02:06:41;13.60;99.90
50606;DHT22;36557;53.572;10.170;2022-08-21T02:09:09;13.50;99.90
50606;DHT22;36557;53.572;10.170;2022-08-21T02:11:36;13.50;99.90
50606;DHT22;36557;53.572;10.170;2022-08-21T02:14:02;13.50;99.90
50606;DHT22;36557;53.572;10.170;2022-08-21T02:16:28;13.60;99.90
50606;DHT22;36557;53.572;10.170;2022-08-21T02:18:54;13.60;99.90
50606;DHT22;36557;53.572;10.170;2022-08-21T02:21:19;13.50;99.90
50606;DHT22;36557;53.572;10.170;2022-08-21T02:23:45;13.50;99.90
50606;DHT22;36557;53.572;10.170;2022-08-21T02:26:11;13.50;99.90
50606;DHT22;36557;53.572;10.170;2022-08-21T02:28:38;13.50;99.90
50606;DHT22;36557;53.572;10.170;2022-08-21T02:31:05;13.50;99.90
50606;DHT22;36557;53.572;10.170;2022-08-21T02:33:32;13.50;99.90
50606;DHT22;36557;53.572;10.170;2022-08-21T02:35:59;13.40;99.90
50606;DHT22;36557;53.572;10.170;2022-08-21T02:38:28;13.50;99.90
50606;DHT22;36557;53.572;10.170;2022-08-21T02:40:55;13.40;99.90
50606;DHT22;36557;53.572;10.170;2022-08-21T02:43:23;13.40;99.90
50606;DHT22;36557;53.572;10.170;2022-08-21T02:45:49;13.40;99.90
50606;DHT22;36557;53.572;10.170;2022-08-21T02:48:19;13.30;99.90
50606;DHT22;36557;53.572;10.170;2022-08-21T02:50:58;13.20;99.90
50606;DHT22;36557;53.572;10.170;2022-08-21T02:53:26;13.20;99.90
50606;DHT22;36557;53.572;10.170;2022-08-21T02:55:53;13.20;99.90
50606;DHT22;36557;53.572;10.170;2022-08-21T02:58:24;13.30;99.90
50606;DHT22;36557;53.572;10.170;2022-08-21T03:00:51;13.30;99.90
50606;DHT22;36557;53.572;10.170;2022-08-21T03:03:17;13.30;99.90
50606;DHT22;36557;53.572;10.170;2022-08-21T03:05:43;13.40;99.90
50606;DHT22;36557;53.572;10.170;2022-08-21T03:08:11;13.40;99.90
50606;DHT22;36557;53.572;10.170;2022-08-21T03:10:39;13.40;99.90
50606;DHT22;36557;53.572;10.170;2022-08-21T03:13:06;13.30;99.90
50606;DHT22;36557;53.572;10.170;2022-08-21T03:15:32;13.20;99.90
50606;DHT22;36557;53.572;10.170;2022-08-21T03:17:59;13.20;99.90
50606;DHT22;36557;53.572;10.170;2022-08-21T03:20:27;13.20;99.90
50606;DHT22;36557;53.572;10.170;2022-08-21T03:22:54;13.10;99.90
50606;DHT22;36557;53.572;10.170;2022-08-21T03:25:21;13.10;99.90
50606;DHT22;36557;53.572;10.170;2022-08-21T03:27:48;13.10;99.90
50606;DHT22;36557;53.572;10.170;2022-08-21T03:30:18;13.10;99.90
50606;DHT22;36557;53.572;10.170;2022-08-21T03:32:46;13.00;99.90
50606;DHT22;36557;53.572;10.170;2022-08-21T03:35:12;13.00;99.90
50606;DHT22;36557;53.572;10.170;2022-08-21T03:37:38;13.00;99.90
50606;DHT22;36557;53.572;10.170;2022-08-21T03:40:06;13.00;99.90
50606;DHT22;36557;53.572;10.170;2022-08-21T03:42:32;13.00;99.90
50606;DHT22;36557;53.572;10.170;2022-08-21T03:44:57;12.90;99.90
50606;DHT22;36557;53.572;10.170;2022-08-21T03:47:23;12.90;99.90
50606;DHT22;36557;53.572;10.170;2022-08-21T03:49:49;12.90;99.90
50606;DHT22;36557;53.572;10.170;2022-08-21T03:52:15;12.90;99.90
50606;DHT22;36557;53.572;10.170;2022-08-21T03:54:43;12.80;99.90
50606;DHT22;36557;53.572;10.170;2022-08-21T03:57:09;12.80;99.90
50606;DHT22;36557;53.572;10.170;2022-08-21T03:59:36;12.70;99.90
50606;DHT22;36557;53.572;10.170;2022-08-21T04:02:05;12.80;99.90
50606;DHT22;36557;53.572;10.170;2022-08-21T04:04:31;12.80;99.90
50606;DHT22;36557;53.572;10.170;2022-08-21T04:06:58;12.70;99.90
50606;DHT22;36557;53.572;10.170;2022-08-21T04:09:25;12.80;99.90
50606;DHT22;36557;53.572;10.170;2022-08-21T04:11:51;12.80;99.90
50606;DHT22;36557;53.572;10.170;2022-08-21T04:14:17;12.70;99.90
50606;DHT22;36557;53.572;10.170;2022-08-21T04:16:44;12.70;99.90
50606;DHT22;36557;53.572;10.170;2022-08-21T04:19:10;12.70;99.90
50606;DHT22;36557;53.572;10.170;2022-08-21T04:21:37;12.70;99.90
50606;DHT22;36557;53.572;10.170;2022-08-21T04:24:04;12.70;99.90
50606;DHT22;36557;53.572;10.170;2022-08-21T04:26:30;12.70;99.90
50606;DHT22;36557;53.572;10.170;2022-08-21T04:28:57;12.70;99.90
50606;DHT22;36557;53.572;10.170;2022-08-21T04:31:26;12.70;99.90
50606;DHT22;36557;53.572;10.170;2022-08-21T04:33:54;12.70;99.90
50606;DHT22;36557;53.572;10.170;2022-08-21T04:36:20;12.70;99.90
50606;DHT22;36557;53.572;10.170;2022-08-21T04:38:46;12.70;99.90
50606;DHT22;36557;53.572;10.170;2022-08-21T04:41:12;12.70;99.90
50606;DHT22;36557;53.572;10.170;2022-08-21T04:43:39;12.70;99.90
50606;DHT22;36557;53.572;10.170;2022-08-21T04:46:05;12.80;99.90
50606;DHT22;36557;53.572;10.170;2022-08-21T04:48:31;12.80;99.90
50606;DHT22;36557;53.572;10.170;2022-08-21T04:56:08;13.20;99.90
50606;DHT22;36557;53.572;10.170;2022-08-21T04:58:37;13.30;99.90
50606;DHT22;36557;53.572;10.170;2022-08-21T05:01:05;13.40;99.90
50606;DHT22;36557;53.572;10.170;2022-08-21T05:03:33;13.50;99.90
50606;DHT22;36557;53.572;10.170;2022-08-21T05:06:00;13.50;99.90
50606;DHT22;36557;53.572;10.170;2022-08-21T05:08:27;13.60;99.90
50606;DHT22;36557;53.572;10.170;2022-08-21T05:10:54;13.70;99.90
50606;DHT22;36557;53.572;10.170;2022-08-21T05:13:20;13.80;99.90
50606;DHT22;36557;53.572;10.170;2022-08-21T05:15:46;14.00;99.90
50606;DHT22;36557;53.572;10.170;2022-08-21T05:18:12;14.10;99.90
50606;DHT22;36557;53.572;10.170;2022-08-21T05:20:38;14.20;99.90
50606;DHT22;36557;53.572;10.170;2022-08-21T05:23:11;14.30;99.90
50606;DHT22;36557;53.572;10.170;2022-08-21T05:25:38;14.30;99.90
50606;DHT22;36557;53.572;10.170;2022-08-21T05:28:05;14.50;99.90
50606;DHT22;36557;53.572;10.170;2022-08-21T05:30:31;14.60;99.90
50606;DHT22;36557;53.572;10.170;2022-08-21T05:32:58;14.80;99.90
50606;DHT22;36557;53.572;10.170;2022-08-21T05:35:25;14.80;99.90
50606;DHT22;36557;53.572;10.170;2022-08-21T05:37:51;14.80;99.90
50606;DHT22;36557;53.572;10.170;2022-08-21T05:40:17;14.90;99.90
50606;DHT22;36557;53.572;10.170;2022-08-21T05:42:44;15.10;99.90
50606;DHT22;36557;53.572;10.170;2022-08-21T05:45:10;15.30;99.90
50606;DHT22;36557;53.572;10.170;2022-08-21T05:47:36;15.40;99.90
50606;DHT22;36557;53.572;10.170;2022-08-21T05:50:03;15.50;99.90
50606;DHT22;36557;53.572;10.170;2022-08-21T05:52:29;15.60;99.90
50606;DHT22;36557;53.572;10.170;2022-08-21T05:54:55;15.60;99.90
50606;DHT22;36557;53.572;10.170;2022-08-21T05:57:21;15.70;99.90
50606;DHT22;36557;53.572;10.170;2022-08-21T05:59:47;15.70;99.90
50606;DHT22;36557;53.572;10.170;2022-08-21T06:02:13;15.90;99.90
50606;DHT22;36557;53.572;10.170;2022-08-21T06:04:39;16.10;99.90
50606;DHT22;36557;53.572;10.170;2022-08-21T06:07:06;16.30;99.90
50606;DHT22;36557;53.572;10.170;2022-08-21T06:09:32;16.40;99.90
50606;DHT22;36557;53.572;10.170;2022-08-21T06:12:02;16.50;99.90
50606;DHT22;36557;53.572;10.170;2022-08-21T06:14:28;16.70;99.90
50606;DHT22;36557;53.572;10.170;2022-08-21T06:16:54;16.80;99.90
50606;DHT22;36557;53.572;10.170;2022-08-21T06:19:19;16.80;99.90
50606;DHT22;36557;53.572;10.170;2022-08-21T06:21:45;16.70;99.90
50606;DHT22;36557;53.572;10.170;2022-08-21T06:24:11;16.70;99.90
50606;DHT22;36557;53.572;10.170;2022-08-21T06:26:36;16.60;99.90
50606;DHT22;36557;53.572;10.170;2022-08-21T06:29:02;16.40;99.90
50606;DHT22;36557;53.572;10.170;2022-08-21T06:31:28;16.40;99.90
50606;DHT22;36557;53.572;10.170;2022-08-21T06:33:54;16.60;99.90
50606;DHT22;36557;53.572;10.170;2022-08-21T06:36:20;16.80;99.90
50606;DHT22;36557;53.572;10.170;2022-08-21T06:38:46;17.10;99.90
50606;DHT22;36557;53.572;10.170;2022-08-21T06:41:13;17.20;99.90
50606;DHT22;36557;53.572;10.170;2022-08-21T06:43:39;17.20;99.90
50606;DHT22;36557;53.572;10.170;2022-08-21T06:46:04;17.20;99.90
50606;DHT22;36557;53.572;10.170;2022-08-21T06:48:30;17.70;99.90
50606;DHT22;36557;53.572;10.170;2022-08-21T06:51:00;17.60;99.90
50606;DHT22;36557;53.572;10.170;2022-08-21T06:53:26;17.60;99.90
50606;DHT22;36557;53.572;10.170;2022-08-21T06:55:52;17.50;99.90
50606;DHT22;36557;53.572;10.170;2022-08-21T06:58:18;17.50;99.90
50606;DHT22;36557;53.572;10.170;2022-08-21T07:00:47;17.60;99.90
50606;DHT22;36557;53.572;10.170;2022-08-21T07:03:19;17.80;99.90
50606;DHT22;36557;53.572;10.170;2022-08-21T07:05:44;18.30;99.90
50606;DHT22;36557;53.572;10.170;2022-08-21T07:08:10;18.50;99.90
50606;DHT22;36557;53.572;10.170;2022-08-21T07:10:36;18.40;99.90
50606;DHT22;36557;53.572;10.170;2022-08-21T07:13:01;18.70;99.90
50606;DHT22;36557;53.572;10.170;2022-08-21T07:15:30;19.00;99.90
50606;DHT22;36557;53.572;10.170;2022-08-21T07:17:58;19.30;99.90
50606;DHT22;36557;53.572;10.170;2022-08-21T07:20:24;19.30;99.90
50606;DHT22;36557;53.572;10.170;2022-08-21T07:22:50;19.50;99.90
50606;DHT22;36557;53.572;10.170;2022-08-21T07:25:16;19.40;99.90
50606;DHT22;36557;53.572;10.170;2022-08-21T07:27:42;19.70;99.90
50606;DHT22;36557;53.572;10.170;2022-08-21T07:30:08;19.50;99.90
50606;DHT22;36557;53.572;10.170;2022-08-21T07:32:34;19.50;99.90
50606;DHT22;36557;53.572;10.170;2022-08-21T07:34:59;19.50;99.90
50606;DHT22;36557;53.572;10.170;2022-08-21T07:37:25;19.90;99.90
50606;DHT22;36557;53.572;10.170;2022-08-21T07:39:51;20.00;99.90
50606;DHT22;36557;53.572;10.170;2022-08-21T07:42:17;20.40;99.90
50606;DHT22;36557;53.572;10.170;2022-08-21T07:44:42;20.50;99.90
50606;DHT22;36557;53.572;10.170;2022-08-21T07:47:08;21.10;99.90
50606;DHT22;36557;53.572;10.170;2022-08-21T07:49:34;21.40;99.90
50606;DHT22;36557;53.572;10.170;2022-08-21T07:52:00;21.40;99.90
50606;DHT22;36557;53.572;10.170;2022-08-21T07:54:26;21.50;99.10
50606;DHT22;36557;53.572;10.170;2022-08-21T07:56:53;22.00;99.90
50606;DHT22;36557;53.572;10.170;2022-08-21T07:59:18;22.20;99.60
50606;DHT22;36557;53.572;10.170;2022-08-21T08:01:44;22.30;98.80
50606;DHT22;36557;53.572;10.170;2022-08-21T08:04:10;22.40;98.00
50606;DHT22;36557;53.572;10.170;2022-08-21T08:06:36;22.70;98.70
50606;DHT22;36557;53.572;10.170;2022-08-21T08:09:02;22.90;97.10
50606;DHT22;36557;53.572;10.170;2022-08-21T08:11:30;22.70;97.20
50606;DHT22;36557;53.572;10.170;2022-08-21T08:13:56;22.90;97.40
50606;DHT22;36557;53.572;10.170;2022-08-21T08:16:23;22.70;96.50
50606;DHT22;36557;53.572;10.170;2022-08-21T08:18:49;22.50;96.30
50606;DHT22;36557;53.572;10.170;2022-08-21T08:21:15;23.10;97.50
50606;DHT22;36557;53.572;10.170;2022-08-21T08:23:41;23.20;97.80
50606;DHT22;36557;53.572;10.170;2022-08-21T08:26:07;23.10;95.40
50606;DHT22;36557;53.572;10.170;2022-08-21T08:28:33;23.00;97.10
50606;DHT22;36557;53.572;10.170;2022-08-21T08:31:00;23.10;97.00
50606;DHT22;36557;53.572;10.170;2022-08-21T08:33:26;22.80;95.70
50606;DHT22;36557;53.572;10.170;2022-08-21T08:35:53;23.40;96.00
50606;DHT22;36557;53.572;10.170;2022-08-21T08:38:20;23.30;95.30
50606;DHT22;36557;53.572;10.170;2022-08-21T08:43:27;23.10;94.90
50606;DHT22;36557;53.572;10.170;2022-08-21T08:45:54;23.70;95.60
50606;DHT22;36557;53.572;10.170;2022-08-21T08:48:46;23.80;94.50
50606;DHT22;36557;53.572;10.170;2022-08-21T08:51:27;23.80;95.70
50606;DHT22;36557;53.572;10.170;2022-08-21T08:54:02;23.50;94.70
50606;DHT22;36557;53.572;10.170;2022-08-21T08:56:31;23.60;95.40
50606;DHT22;36557;53.572;10.170;2022-08-21T08:59:07;24.30;95.30
50606;DHT22;36557;53.572;10.170;2022-08-21T09:01:34;24.50;95.00
50606;DHT22;36557;53.572;10.170;2022-08-21T09:04:00;24.70;94.20
50606;DHT22;36557;53.572;10.170;2022-08-21T09:09:22;24.50;93.70
50606;DHT22;36557;53.572;10.170;2022-08-21T09:12:17;24.60;95.30
50606;DHT22;36557;53.572;10.170;2022-08-21T09:15:06;24.70;95.40
50606;DHT22;36557;53.572;10.170;2022-08-21T09:17:36;25.10;94.60
50606;DHT22;36557;53.572;10.170;2022-08-21T09:20:29;25.30;92.70
50606;DHT22;36557;53.572;10.170;2022-08-21T09:26:17;24.80;95.00
50606;DHT22;36557;53.572;10.170;2022-08-21T09:28:44;25.40;93.80
50606;DHT22;36557;53.572;10.170;2022-08-21T09:33:48;25.50;93.90
50606;DHT22;36557;53.572;10.170;2022-08-21T09:36:24;25.50;94.20
50606;DHT22;36557;53.572;10.170;2022-08-21T09:38:54;25.30;95.60
50606;DHT22;36557;53.572;10.170;2022-08-21T09:41:31;25.60;93.90
50606;DHT22;36557;53.572;10.170;2022-08-21T09:43:59;25.70;92.40
50606;DHT22;36557;53.572;10.170;2022-08-21T09:46:26;26.50;93.80
50606;DHT22;36557;53.572;10.170;2022-08-21T09:48:55;27.60;92.90
50606;DHT22;36557;53.572;10.170;2022-08-21T09:51:30;25.80;92.50
50606;DHT22;36557;53.572;10.170;2022-08-21T09:59:26;25.80;94.40
50606;DHT22;36557;53.572;10.170;2022-08-21T10:01:53;25.30;93.10
50606;DHT22;36557;53.572;10.170;2022-08-21T10:04:26;24.80;92.90
50606;DHT22;36557;53.572;10.170;2022-08-21T10:06:52;25.30;94.30
50606;DHT22;36557;53.572;10.170;2022-08-21T10:09:21;26.00;93.00
50606;DHT22;36557;53.572;10.170;2022-08-21T10:20:03;26.80;91.50
50606;DHT22;36557;53.572;10.170;2022-08-21T10:22:52;26.00;92.60
50606;DHT22;36557;53.572;10.170;2022-08-21T10:25:30;26.30;91.20
50606;DHT22;36557;53.572;10.170;2022-08-21T10:30:52;26.40;91.90
50606;DHT22;36557;53.572;10.170;2022-08-21T10:34:03;26.80;91.40
50606;DHT22;36557;53.572;10.170;2022-08-21T10:44:45;27.10;90.30
50606;DHT22;36557;53.572;10.170;2022-08-21T10:50:01;27.20;90.50
50606;DHT22;36557;53.572;10.170;2022-08-21T10:52:45;26.20;88.70
50606;DHT22;36557;53.572;10.170;2022-08-21T10:55:22;26.50;90.50
50606;DHT22;36557;53.572;10.170;2022-08-21T10:57:58;27.10;91.60
50606;DHT22;36557;53.572;10.170;2022-08-21T11:00:49;27.60;90.70
50606;DHT22;36557;53.572;10.170;2022-08-21T11:03:27;28.00;90.80
50606;DHT22;36557;53.572;10.170;2022-08-21T11:06:16;28.10;90.40
50606;DHT22;36557;53.572;10.170;2022-08-21T11:08:46;28.10;86.90
50606;DHT22;36557;53.572;10.170;2022-08-21T11:11:27;28.10;87.70
50606;DHT22;36557;53.572;10.170;2022-08-21T11:14:38;28.70;86.20
50606;DHT22;36557;53.572;10.170;2022-08-21T11:17:13;28.50;86.30
50606;DHT22;36557;53.572;10.170;2022-08-21T11:19:48;28.40;85.50
50606;DHT22;36557;53.572;10.170;2022-08-21T11:22:50;28.30;86.90
50606;DHT22;36557;53.572;10.170;2022-08-21T11:30:17;28.90;84.80
50606;DHT22;36557;53.572;10.170;2022-08-21T11:33:22;29.40;78.70
50606;DHT22;36557;53.572;10.170;2022-08-21T11:35:58;30.50;80.40
50606;DHT22;36557;53.572;10.170;2022-08-21T11:41:37;28.90;81.10
50606;DHT22;36557;53.572;10.170;2022-08-21T11:44:41;28.30;78.80
50606;DHT22;36557;53.572;10.170;2022-08-21T11:50:18;28.40;78.30
50606;DHT22;36557;53.572;10.170;2022-08-21T11:52:53;29.10;79.90
50606;DHT22;36557;53.572;10.170;2022-08-21T11:55:43;29.70;79.70
50606;DHT22;36557;53.572;10.170;2022-08-21T11:58:39;29.10;77.40
50606;DHT22;36557;53.572;10.170;2022-08-21T12:01:13;28.30;77.10
50606;DHT22;36557;53.572;10.170;2022-08-21T12:03:52;28.30;79.10
50606;DHT22;36557;53.572;10.170;2022-08-21T12:06:32;28.60;76.40
50606;DHT22;36557;53.572;10.170;2022-08-21T12:09:01;29.90;79.90
50606;DHT22;36557;53.572;10.170;2022-08-21T12:11:28;29.30;77.00
50606;DHT22;36557;53.572;10.170;2022-08-21T12:13:58;28.80;75.70
50606;DHT22;36557;53.572;10.170;2022-08-21T12:16:38;27.50;76.90
50606;DHT22;36557;53.572;10.170;2022-08-21T12:21:30;26.70;80.90
50606;DHT22;36557;53.572;10.170;2022-08-21T12:24:20;27.00;81.20
50606;DHT22;36557;53.572;10.170;2022-08-21T12:29:43;29.40;77.40
50606;DHT22;36557;53.572;10.170;2022-08-21T12:34:39;28.00;73.30
50606;DHT22;36557;53.572;10.170;2022-08-21T12:39:47;29.20;75.40
50606;DHT22;36557;53.572;10.170;2022-08-21T12:42:24;29.50;75.60
50606;DHT22;36557;53.572;10.170;2022-08-21T12:45:03;30.10;74.40
50606;DHT22;36557;53.572;10.170;2022-08-21T12:53:23;29.40;72.20
50606;DHT22;36557;53.572;10.170;2022-08-21T12:55:47;28.90;73.10
50606;DHT22;36557;53.572;10.170;2022-08-21T12:58:21;29.40;75.30
50606;DHT22;36557;53.572;10.170;2022-08-21T13:00:50;29.50;76.20
50606;DHT22;36557;53.572;10.170;2022-08-21T13:03:17;30.40;75.20
50606;DHT22;36557;53.572;10.170;2022-08-21T13:05:44;30.30;69.50
50606;DHT22;36557;53.572;10.170;2022-08-21T13:08:11;30.00;72.20
50606;DHT22;36557;53.572;10.170;2022-08-21T13:10:39;30.40;71.10
50606;DHT22;36557;53.572;10.170;2022-08-21T13:13:10;30.50;71.20
50606;DHT22;36557;53.572;10.170;2022-08-21T13:15:39;29.90;71.10
50606;DHT22;36557;53.572;10.170;2022-08-21T13:18:06;27.60;70.30
50606;DHT22;36557;53.572;10.170;2022-08-21T13:20:39;28.40;72.40
50606;DHT22;36557;53.572;10.170;2022-08-21T13:23:28;29.40;72.60
50606;DHT22;36557;53.572;10.170;2022-08-21T13:25:52;29.70;72.60
50606;DHT22;36557;53.572;10.170;2022-08-21T13:28:18;30.10;73.40
50606;DHT22;36557;53.572;10.170;2022-08-21T13:30:53;29.30;72.60
50606;DHT22;36557;53.572;10.170;2022-08-21T13:33:24;27.90;71.40
50606;DHT22;36557;53.572;10.170;2022-08-21T13:36:01;28.90;71.30
50606;DHT22;36557;53.572;10.170;2022-08-21T13:38:31;29.60;73.60
50606;DHT22;36557;53.572;10.170;2022-08-21T13:41:25;30.70;71.60
50606;DHT22;36557;53.572;10.170;2022-08-21T13:44:01;30.70;69.00
50606;DHT22;36557;53.572;10.170;2022-08-21T13:46:32;28.40;70.50
50606;DHT22;36557;53.572;10.170;2022-08-21T13:49:00;27.80;70.70
50606;DHT22;36557;53.572;10.170;2022-08-21T13:51:27;27.20;71.70
50606;DHT22;36557;53.572;10.170;2022-08-21T13:53:53;28.60;75.90
50606;DHT22;36557;53.572;10.170;2022-08-21T13:56:45;30.00;73.80
50606;DHT22;36557;53.572;10.170;2022-08-21T13:59:12;30.50;72.40
50606;DHT22;36557;53.572;10.170;2022-08-21T14:02:11;31.50;69.10
50606;DHT22;36557;53.572;10.170;2022-08-21T14:05:01;29.00;67.80
50606;DHT22;36557;53.572;10.170;2022-08-21T14:07:33;27.70;69.60
50606;DHT22;36557;53.572;10.170;2022-08-21T14:10:05;27.90;73.40
50606;DHT22;36557;53.572;10.170;2022-08-21T14:12:51;28.70;71.70
50606;DHT22;36557;53.572;10.170;2022-08-21T14:15:19;28.50;69.40
50606;DHT22;36557;53.572;10.170;2022-08-21T14:17:47;27.70;69.00
50606;DHT22;36557;53.572;10.170;2022-08-21T14:20:31;27.10;71.30
50606;DHT22;36557;53.572;10.170;2022-08-21T14:22:58;27.20;71.70
50606;DHT22;36557;53.572;10.170;2022-08-21T14:30:39;27.00;74.40
50606;DHT22;36557;53.572;10.170;2022-08-21T14:33:10;26.20;73.40
50606;DHT22;36557;53.572;10.170;2022-08-21T14:35:36;26.00;74.50
50606;DHT22;36557;53.572;10.170;2022-08-21T14:38:02;25.40;74.30
50606;DHT22;36557;53.572;10.170;2022-08-21T14:40:36;25.10;74.30
50606;DHT22;36557;53.572;10.170;2022-08-21T14:43:01;25.20;74.70
50606;DHT22;36557;53.572;10.170;2022-08-21T14:45:29;25.20;76.10
50606;DHT22;36557;53.572;10.170;2022-08-21T14:47:56;25.80;72.30
50606;DHT22;36557;53.572;10.170;2022-08-21T14:50:23;26.50;74.80
50606;DHT22;36557;53.572;10.170;2022-08-21T14:52:49;26.80;74.20
50606;DHT22;36557;53.572;10.170;2022-08-21T14:55:15;26.20;74.50
50606;DHT22;36557;53.572;10.170;2022-08-21T14:57:47;25.50;72.70
50606;DHT22;36557;53.572;10.170;2022-08-21T15:00:15;25.00;75.00
50606;DHT22;36557;53.572;10.170;2022-08-21T15:02:43;25.40;76.70
50606;DHT22;36557;53.572;10.170;2022-08-21T15:05:09;25.60;76.30
50606;DHT22;36557;53.572;10.170;2022-08-21T15:07:34;25.40;76.10
50606;DHT22;36557;53.572;10.170;2022-08-21T15:10:02;25.10;75.00
50606;DHT22;36557;53.572;10.170;2022-08-21T15:12:28;24.80;76.10
50606;DHT22;36557;53.572;10.170;2022-08-21T15:14:54;25.00;77.20
50606;DHT22;36557;53.572;10.170;2022-08-21T15:17:20;24.70;77.20
50606;DHT22;36557;53.572;10.170;2022-08-21T15:19:46;24.60;77.20
50606;DHT22;36557;53.572;10.170;2022-08-21T15:22:11;24.80;76.50
50606;DHT22;36557;53.572;10.170;2022-08-21T15:24:37;25.20;78.90
50606;DHT22;36557;53.572;10.170;2022-08-21T15:27:04;24.90;77.60
50606;DHT22;36557;53.572;10.170;2022-08-21T15:29:32;24.90;79.10
50606;DHT22;36557;53.572;10.170;2022-08-21T15:32:00;24.80;77.40
50606;DHT22;36557;53.572;10.170;2022-08-21T15:34:28;24.50;76.60
50606;DHT22;36557;53.572;10.170;2022-08-21T15:36:55;24.60;78.30
50606;DHT22;36557;53.572;10.170;2022-08-21T15:39:22;24.70;78.30
50606;DHT22;36557;53.572;10.170;2022-08-21T15:41:48;24.40;78.50
50606;DHT22;36557;53.572;10.170;2022-08-21T15:44:14;24.50;76.10
50606;DHT22;36557;53.572;10.170;2022-08-21T15:46:41;24.30;77.80
50606;DHT22;36557;53.572;10.170;2022-08-21T15:49:07;24.60;80.00
50606;DHT22;36557;53.572;10.170;2022-08-21T15:51:33;25.20;79.10
50606;DHT22;36557;53.572;10.170;2022-08-21T15:53:59;24.90;79.40
50606;DHT22;36557;53.572;10.170;2022-08-21T15:56:46;24.60;78.30
50606;DHT22;36557;53.572;10.170;2022-08-21T15:59:16;24.70;78.20
50606;DHT22;36557;53.572;10.170;2022-08-21T16:01:43;24.50;79.60
50606;DHT22;36557;53.572;10.170;2022-08-21T16:04:09;24.50;80.50
50606;DHT22;36557;53.572;10.170;2022-08-21T16:06:35;24.30;80.50
50606;DHT22;36557;53.572;10.170;2022-08-21T16:09:01;24.40;80.40
50606;DHT22;36557;53.572;10.170;2022-08-21T16:11:27;24.10;79.70
50606;DHT22;36557;53.572;10.170;2022-08-21T16:13:53;24.00;79.10
50606;DHT22;36557;53.572;10.170;2022-08-21T16:16:22;24.20;79.10
50606;DHT22;36557;53.572;10.170;2022-08-21T16:18:49;24.50;80.60
50606;DHT22;36557;53.572;10.170;2022-08-21T16:21:15;24.50;79.10
50606;DHT22;36557;53.572;10.170;2022-08-21T16:23:41;24.30;79.00
50606;DHT22;36557;53.572;10.170;2022-08-21T16:26:08;24.00;78.00
50606;DHT22;36557;53.572;10.170;2022-08-21T16:28:36;23.80;80.00
50606;DHT22;36557;53.572;10.170;2022-08-21T16:31:03;23.90;80.00
50606;DHT22;36557;53.572;10.170;2022-08-21T16:33:36;23.90;80.00
50606;DHT22;36557;53.572;10.170;2022-08-21T16:36:04;23.90;81.10
50606;DHT22;36557;53.572;10.170;2022-08-21T16:38:30;23.90;80.60
50606;DHT22;36557;53.572;10.170;2022-08-21T16:40:58;23.80;79.10
50606;DHT22;36557;53.572;10.170;2022-08-21T16:43:26;23.80;81.00
50606;DHT22;36557;53.572;10.170;2022-08-21T16:45:53;23.80;81.10